sensor_id;sensor_type;location;lat;lon;timestamp;pressure;altitude;pressure_sealevel;temperature;humidity
75157;BME280;63736;50.076;8.198;2023-08-24T00:00:22;99715.53;;;18.99;80.32
75157;BME280;63736;50.076;8.198;2023-08-24T00:02:48;99722.44;;;19.02;80.70
75157;BME280;63736;50.076;8.198;2023-08-24T00:05:13;99721.91;;;19.07;80.90
75157;BME280;63736;50.076;8.198;2023-08-24T00:07:39;99714.44;;;19.09;82.03
75157;BME280;63736;50.076;8.198;2023-08-24T00:10:04;99719.34;;;19.13;81.42
75157;BME280;63736;50.076;8.198;2023-08-24T00:12:30;99718.31;;;19.14;80.78
75157;BME280;63736;50.076;8.198;2023-08-24T00:14:55;99707.81;;;19.11;80.50
75157;BME280;63736;50.076;8.198;2023-08-24T00:17:21;99710.91;;;19.08;80.24
75157;BME280;63736;50.076;8.198;2023-08-24T00:19:48;99713.13;;;19.05;80.13
75157;BME280;63736;50.076;8.198;2023-08-24T00:22:13;99708.41;;;18.98;80.21
75157;BME280;63736;50.076;8.198;2023-08-24T00:24:38;99707.09;;;18.94;80.37
75157;BME280;63736;50.076;8.198;2023-08-24T00:27:04;99712.88;;;18.91;80.85
75157;BME280;63736;50.076;8.198;2023-08-24T00:29:29;99707.78;;;18.88;80.96
75157;BME280;63736;50.076;8.198;2023-08-24T00:31:54;99708.97;;;18.86;81.54
75157;BME280;63736;50.076;8.198;2023-08-24T00:34:19;99713.56;;;18.85;81.74
75157;BME280;63736;50.076;8.198;2023-08-24T00:36:45;99711.69;;;18.86;82.68
75157;BME280;63736;50.076;8.198;2023-08-24T00:39:11;99715.88;;;18.88;83.25
75157;BME280;63736;50.076;8.198;2023-08-24T00:41:37;99712.88;;;18.91;84.46
75157;BME280;63736;50.076;8.198;2023-08-24T00:44:02;99713.38;;;18.95;85.64
75157;BME280;63736;50.076;8.198;2023-08-24T00:46:27;99719.09;;;19.00;86.04
75157;BME280;63736;50.076;8.198;2023-08-24T00:48:54;99722.94;;;19.06;86.08
75157;BME280;63736;50.076;8.198;2023-08-24T00:51:22;99718.16;;;19.08;86.22
75157;BME280;63736;50.076;8.198;2023-08-24T00:53:48;99716.97;;;19.10;85.60
75157;BME280;63736;50.076;8.198;2023-08-24T00:56:13;99724.75;;;19.13;85.30
75157;BME280;63736;50.076;8.198;2023-08-24T00:58:39;99719.63;;;19.19;85.30
75157;BME280;63736;50.076;8.198;2023-08-24T01:01:05;99725.53;;;19.22;84.95
75157;BME280;63736;50.076;8.198;2023-08-24T01:03:30;99726.88;;;19.26;84.52
75157;BME280;63736;50.076;8.198;2023-08-24T01:05:55;99730.88;;;19.30;83.81
75157;BME280;63736;50.076;8.198;2023-08-24T01:08:21;99719.53;;;19.35;83.26
75157;BME280;63736;50.076;8.198;2023-08-24T01:13:44;99722.22;;;19.35;82.01
75157;BME280;63736;50.076;8.198;2023-08-24T01:16:19;99710.00;;;19.39;82.09
75157;BME280;63736;50.076;8.198;2023-08-24T01:18:45;99718.97;;;19.40;81.62
75157;BME280;63736;50.076;8.198;2023-08-24T01:21:12;99704.59;;;19.39;81.47
75157;BME280;63736;50.076;8.198;2023-08-24T01:26:20;99708.81;;;19.42;82.39
75157;BME280;63736;50.076;8.198;2023-08-24T01:28:47;99701.41;;;19.51;82.05
75157;BME280;63736;50.076;8.198;2023-08-24T01:31:16;99704.28;;;19.57;81.39
75157;BME280;63736;50.076;8.198;2023-08-24T01:33:42;99705.28;;;19.56;81.66
75157;BME280;63736;50.076;8.198;2023-08-24T01:36:13;99702.09;;;19.53;81.80
75157;BME280;63736;50.076;8.198;2023-08-24T01:38:39;99702.91;;;19.53;83.31
75157;BME280;63736;50.076;8.198;2023-08-24T01:41:26;99704.56;;;19.62;83.34
75157;BME280;63736;50.076;8.198;2023-08-24T01:43:54;99704.81;;;19.68;82.83
75157;BME280;63736;50.076;8.198;2023-08-24T01:46:21;99698.88;;;19.72;82.84
75157;BME280;63736;50.076;8.198;2023-08-24T01:48:47;99707.47;;;19.76;82.52
75157;BME280;63736;50.076;8.198;2023-08-24T01:51:14;99700.66;;;19.80;82.26
75157;BME280;63736;50.076;8.198;2023-08-24T01:53:40;99687.22;;;19.87;81.92
75157;BME280;63736;50.076;8.198;2023-08-24T01:56:10;99684.91;;;19.98;81.34
75157;BME280;63736;50.076;8.198;2023-08-24T01:58:35;99695.94;;;20.12;80.47
75157;BME280;63736;50.076;8.198;2023-08-24T02:01:01;99684.81;;;20.22;79.42
75157;BME280;63736;50.076;8.198;2023-08-24T02:03:26;99682.84;;;20.30;78.61
75157;BME280;63736;50.076;8.198;2023-08-24T02:05:51;99685.25;;;20.40;77.84
75157;BME280;63736;50.076;8.198;2023-08-24T02:08:17;99675.31;;;20.47;77.24
75157;BME280;63736;50.076;8.198;2023-08-24T02:10:42;99673.09;;;20.51;76.84
75157;BME280;63736;50.076;8.198;2023-08-24T02:13:07;99678.31;;;20.53;76.70
75157;BME280;63736;50.076;8.198;2023-08-24T02:15:32;99664.00;;;20.59;76.55
75157;BME280;63736;50.076;8.198;2023-08-24T02:17:58;99661.53;;;20.64;76.12
75157;BME280;63736;50.076;8.198;2023-08-24T02:20:23;99656.75;;;20.66;76.29
75157;BME280;63736;50.076;8.198;2023-08-24T02:22:48;99654.91;;;20.67;76.52
75157;BME280;63736;50.076;8.198;2023-08-24T02:25:14;99646.56;;;20.68;76.28
75157;BME280;63736;50.076;8.198;2023-08-24T02:27:39;99640.56;;;20.73;75.88
75157;BME280;63736;50.076;8.198;2023-08-24T02:30:05;99641.03;;;20.76;76.36
75157;BME280;63736;50.076;8.198;2023-08-24T02:32:30;99640.00;;;20.77;76.16
75157;BME280;63736;50.076;8.198;2023-08-24T02:34:56;99631.84;;;20.77;75.76
75157;BME280;63736;50.076;8.198;2023-08-24T02:37:22;99632.69;;;20.78;75.91
75157;BME280;63736;50.076;8.198;2023-08-24T02:39:47;99629.13;;;20.77;75.99
75157;BME280;63736;50.076;8.198;2023-08-24T02:42:13;99632.69;;;20.78;76.30
75157;BME280;63736;50.076;8.198;2023-08-24T02:44:38;99630.38;;;20.75;76.42
75157;BME280;63736;50.076;8.198;2023-08-24T02:47:04;99621.09;;;20.69;76.53
75157;BME280;63736;50.076;8.198;2023-08-24T02:49:29;99620.19;;;20.62;77.01
75157;BME280;63736;50.076;8.198;2023-08-24T02:51:55;99621.78;;;20.56;77.42
75157;BME280;63736;50.076;8.198;2023-08-24T02:54:20;99627.16;;;20.50;77.94
75157;BME280;63736;50.076;8.198;2023-08-24T02:56:45;99619.09;;;20.41;78.27
75157;BME280;63736;50.076;8.198;2023-08-24T02:59:11;99620.25;;;20.32;78.64
75157;BME280;63736;50.076;8.198;2023-08-24T03:01:36;99630.63;;;20.28;79.06
75157;BME280;63736;50.076;8.198;2023-08-24T03:04:04;99620.72;;;20.21;79.81
75157;BME280;63736;50.076;8.198;2023-08-24T03:06:30;99606.91;;;20.16;80.55
75157;BME280;63736;50.076;8.198;2023-08-24T03:08:55;99617.75;;;20.16;79.99
75157;BME280;63736;50.076;8.198;2023-08-24T03:11:20;99612.97;;;20.18;79.69
75157;BME280;63736;50.076;8.198;2023-08-24T03:13:46;99601.13;;;20.19;79.55
75157;BME280;63736;50.076;8.198;2023-08-24T03:16:11;99593.59;;;20.21;79.43
75157;BME280;63736;50.076;8.198;2023-08-24T03:18:36;99596.22;;;20.29;77.62
75157;BME280;63736;50.076;8.198;2023-08-24T03:21:01;99592.91;;;20.49;75.41
75157;BME280;63736;50.076;8.198;2023-08-24T03:23:27;99584.94;;;20.69;73.95
75157;BME280;63736;50.076;8.198;2023-08-24T03:25:53;99583.25;;;20.83;72.86
75157;BME280;63736;50.076;8.198;2023-08-24T03:28:18;99573.28;;;20.90;72.38
75157;BME280;63736;50.076;8.198;2023-08-24T03:30:50;99566.88;;;20.98;71.97
75157;BME280;63736;50.076;8.198;2023-08-24T03:33:16;99577.97;;;21.03;71.31
75157;BME280;63736;50.076;8.198;2023-08-24T03:35:42;99575.72;;;21.06;70.96
75157;BME280;63736;50.076;8.198;2023-08-24T03:38:07;99565.97;;;21.12;70.70
75157;BME280;63736;50.076;8.198;2023-08-24T03:40:33;99559.09;;;21.16;70.49
75157;BME280;63736;50.076;8.198;2023-08-24T03:42:58;99569.75;;;21.18;69.91
75157;BME280;63736;50.076;8.198;2023-08-24T03:45:23;99562.00;;;21.15;70.31
75157;BME280;63736;50.076;8.198;2023-08-24T03:47:49;99571.19;;;21.13;70.69
75157;BME280;63736;50.076;8.198;2023-08-24T03:50:15;99557.16;;;21.10;71.02
75157;BME280;63736;50.076;8.198;2023-08-24T03:52:41;99550.25;;;21.07;71.62
75157;BME280;63736;50.076;8.198;2023-08-24T03:55:07;99546.50;;;21.08;71.88
75157;BME280;63736;50.076;8.198;2023-08-24T03:57:32;99541.91;;;21.09;72.16
75157;BME280;63736;50.076;8.198;2023-08-24T03:59:58;99523.34;;;21.12;71.94
75157;BME280;63736;50.076;8.198;2023-08-24T04:02:23;99515.63;;;21.16;71.67
75157;BME280;63736;50.076;8.198;2023-08-24T04:04:50;99522.34;;;21.20;71.60
75157;BME280;63736;50.076;8.198;2023-08-24T04:07:15;99531.97;;;21.23;71.64
75157;BME280;63736;50.076;8.198;2023-08-24T04:09:40;99531.31;;;21.21;72.65
75157;BME280;63736;50.076;8.198;2023-08-24T04:12:06;99542.16;;;21.14;73.64
75157;BME280;63736;50.076;8.198;2023-08-24T04:14:31;99544.38;;;21.04;74.03
75157;BME280;63736;50.076;8.198;2023-08-24T04:16:57;99542.00;;;20.94;74.96
75157;BME280;63736;50.076;8.198;2023-08-24T04:19:22;99537.56;;;20.86;75.39
75157;BME280;63736;50.076;8.198;2023-08-24T04:21:47;99536.44;;;20.80;75.81
75157;BME280;63736;50.076;8.198;2023-08-24T04:24:12;99535.56;;;20.73;76.63
75157;BME280;63736;50.076;8.198;2023-08-24T04:26:38;99533.38;;;20.69;77.12
75157;BME280;63736;50.076;8.198;2023-08-24T04:29:03;99524.78;;;20.65;78.06
75157;BME280;63736;50.076;8.198;2023-08-24T04:31:28;99511.81;;;20.60;78.78
75157;BME280;63736;50.076;8.198;2023-08-24T04:33:54;99524.97;;;20.63;78.94
75157;BME280;63736;50.076;8.198;2023-08-24T04:36:19;99556.13;;;20.68;78.82
75157;BME280;63736;50.076;8.198;2023-08-24T04:38:44;99573.56;;;20.73;80.02
75157;BME280;63736;50.076;8.198;2023-08-24T04:41:09;99584.41;;;20.73;81.01
75157;BME280;63736;50.076;8.198;2023-08-24T04:43:37;99596.31;;;20.72;80.81
75157;BME280;63736;50.076;8.198;2023-08-24T04:46:02;99617.19;;;20.72;81.06
75157;BME280;63736;50.076;8.198;2023-08-24T04:48:28;99623.44;;;20.72;81.52
75157;BME280;63736;50.076;8.198;2023-08-24T04:50:58;99641.22;;;20.75;81.47
75157;BME280;63736;50.076;8.198;2023-08-24T04:53:23;99657.31;;;20.76;81.99
75157;BME280;63736;50.076;8.198;2023-08-24T04:55:48;99687.72;;;20.87;82.83
75157;BME280;63736;50.076;8.198;2023-08-24T04:58:14;99699.94;;;20.98;82.87
75157;BME280;63736;50.076;8.198;2023-08-24T05:00:39;99714.91;;;21.08;82.19
75157;BME280;63736;50.076;8.198;2023-08-24T05:03:05;99726.66;;;21.16;81.39
75157;BME280;63736;50.076;8.198;2023-08-24T05:05:32;99731.53;;;21.20;80.95
75157;BME280;63736;50.076;8.198;2023-08-24T05:07:59;99730.28;;;21.23;80.48
75157;BME280;63736;50.076;8.198;2023-08-24T05:10:25;99742.66;;;21.25;80.42
75157;BME280;63736;50.076;8.198;2023-08-24T05:12:50;99735.72;;;21.23;80.38
75157;BME280;63736;50.076;8.198;2023-08-24T05:15:16;99731.13;;;21.23;80.40
75157;BME280;63736;50.076;8.198;2023-08-24T05:17:41;99731.13;;;21.23;80.59
75157;BME280;63736;50.076;8.198;2023-08-24T05:20:07;99723.63;;;21.25;81.07
75157;BME280;63736;50.076;8.198;2023-08-24T05:22:36;99716.31;;;21.26;81.29
75157;BME280;63736;50.076;8.198;2023-08-24T05:25:02;99715.28;;;21.27;81.08
75157;BME280;63736;50.076;8.198;2023-08-24T05:27:27;99720.50;;;21.28;81.80
75157;BME280;63736;50.076;8.198;2023-08-24T05:29:52;99720.50;;;21.28;82.49
75157;BME280;63736;50.076;8.198;2023-08-24T05:32:18;99718.00;;;21.27;82.13
75157;BME280;63736;50.076;8.198;2023-08-24T05:34:45;99719.69;;;21.28;81.74
75157;BME280;63736;50.076;8.198;2023-08-24T05:37:10;99715.75;;;21.31;82.39
75157;BME280;63736;50.076;8.198;2023-08-24T05:39:35;99725.38;;;21.33;83.95
75157;BME280;63736;50.076;8.198;2023-08-24T05:42:00;99723.50;;;21.34;84.07
75157;BME280;63736;50.076;8.198;2023-08-24T05:44:26;99739.03;;;21.40;85.38
75157;BME280;63736;50.076;8.198;2023-08-24T05:46:51;99738.00;;;21.41;86.50
75157;BME280;63736;50.076;8.198;2023-08-24T05:49:17;99737.59;;;21.44;86.95
75157;BME280;63736;50.076;8.198;2023-08-24T05:51:42;99734.88;;;21.44;87.99
75157;BME280;63736;50.076;8.198;2023-08-24T05:54:07;99740.97;;;21.46;89.01
75157;BME280;63736;50.076;8.198;2023-08-24T05:56:32;99739.28;;;21.45;90.16
75157;BME280;63736;50.076;8.198;2023-08-24T05:58:58;99729.25;;;21.45;90.23
75157;BME280;63736;50.076;8.198;2023-08-24T06:01:24;99717.91;;;21.42;92.40
75157;BME280;63736;50.076;8.198;2023-08-24T06:03:50;99702.88;;;21.39;91.51
75157;BME280;63736;50.076;8.198;2023-08-24T06:06:15;99713.53;;;21.41;91.42
75157;BME280;63736;50.076;8.198;2023-08-24T06:08:41;99719.41;;;21.44;91.73
75157;BME280;63736;50.076;8.198;2023-08-24T06:11:07;99724.25;;;21.49;92.73
75157;BME280;63736;50.076;8.198;2023-08-24T06:13:33;99721.34;;;21.51;93.93
75157;BME280;63736;50.076;8.198;2023-08-24T06:15:58;99706.91;;;21.50;95.10
75157;BME280;63736;50.076;8.198;2023-08-24T06:18:23;99696.25;;;21.49;98.00
75157;BME280;63736;50.076;8.198;2023-08-24T06:20:49;99670.88;;;21.41;100.00
75157;BME280;63736;50.076;8.198;2023-08-24T06:23:17;99653.88;;;21.33;100.00
75157;BME280;63736;50.076;8.198;2023-08-24T06:25:43;99631.84;;;21.21;100.00
75157;BME280;63736;50.076;8.198;2023-08-24T06:28:11;99610.41;;;21.04;100.00
75157;BME280;63736;50.076;8.198;2023-08-24T06:30:40;99598.38;;;20.92;100.00
75157;BME280;63736;50.076;8.198;2023-08-24T06:33:07;99609.16;;;20.85;100.00
75157;BME280;63736;50.076;8.198;2023-08-24T06:35:35;99614.81;;;20.84;100.00
75157;BME280;63736;50.076;8.198;2023-08-24T06:38:01;99618.34;;;20.84;100.00
75157;BME280;63736;50.076;8.198;2023-08-24T06:40:27;99626.09;;;20.87;100.00
75157;BME280;63736;50.076;8.198;2023-08-24T06:42:52;99625.97;;;20.95;100.00
75157;BME280;63736;50.076;8.198;2023-08-24T06:45:17;99631.53;;;21.09;100.00
75157;BME280;63736;50.076;8.198;2023-08-24T06:47:44;99639.00;;;21.28;100.00
75157;BME280;63736;50.076;8.198;2023-08-24T06:50:09;99639.81;;;21.51;98.89
75157;BME280;63736;50.076;8.198;2023-08-24T06:52:35;99629.16;;;21.77;97.09
75157;BME280;63736;50.076;8.198;2023-08-24T06:55:00;99621.81;;;22.13;95.50
75157;BME280;63736;50.076;8.198;2023-08-24T06:57:26;99603.97;;;22.46;93.15
75157;BME280;63736;50.076;8.198;2023-08-24T06:59:51;99593.31;;;22.57;92.66
75157;BME280;63736;50.076;8.198;2023-08-24T07:02:17;99590.38;;;22.59;93.46
75157;BME280;63736;50.076;8.198;2023-08-24T07:04:43;99581.59;;;22.57;92.82
75157;BME280;63736;50.076;8.198;2023-08-24T07:07:09;99581.81;;;22.55;92.09
75157;BME280;63736;50.076;8.198;2023-08-24T07:09:34;99596.88;;;22.51;93.44
75157;BME280;63736;50.076;8.198;2023-08-24T07:12:01;99603.16;;;22.52;94.03
75157;BME280;63736;50.076;8.198;2023-08-24T07:14:26;99617.78;;;22.51;96.01
75157;BME280;63736;50.076;8.198;2023-08-24T07:16:52;99619.69;;;22.43;98.26
75157;BME280;63736;50.076;8.198;2023-08-24T07:19:17;99624.47;;;22.41;98.99
75157;BME280;63736;50.076;8.198;2023-08-24T07:21:42;99610.44;;;22.38;100.00
75157;BME280;63736;50.076;8.198;2023-08-24T07:24:07;99611.84;;;22.34;100.00
75157;BME280;63736;50.076;8.198;2023-08-24T07:26:33;99614.34;;;22.28;100.00
75157;BME280;63736;50.076;8.198;2023-08-24T07:28:59;99623.31;;;22.22;100.00
75157;BME280;63736;50.076;8.198;2023-08-24T07:31:24;99627.47;;;22.18;100.00
75157;BME280;63736;50.076;8.198;2023-08-24T07:33:50;99636.88;;;22.16;100.00
75157;BME280;63736;50.076;8.198;2023-08-24T07:36:15;99634.38;;;22.14;100.00
75157;BME280;63736;50.076;8.198;2023-08-24T07:38:40;99611.34;;;22.10;100.00
75157;BME280;63736;50.076;8.198;2023-08-24T07:41:06;99579.53;;;22.10;100.00
75157;BME280;63736;50.076;8.198;2023-08-24T07:43:32;99577.84;;;22.09;100.00
75157;BME280;63736;50.076;8.198;2023-08-24T07:45:57;99539.75;;;22.03;100.00
75157;BME280;63736;50.076;8.198;2023-08-24T07:48:22;99524.19;;;21.83;100.00
75157;BME280;63736;50.076;8.198;2023-08-24T07:50:48;99518.00;;;21.61;100.00
75157;BME280;63736;50.076;8.198;2023-08-24T07:53:13;99513.53;;;21.46;100.00
75157;BME280;63736;50.076;8.198;2023-08-24T07:55:39;99525.19;;;21.40;100.00
75157;BME280;63736;50.076;8.198;2023-08-24T07:58:04;99522.09;;;21.43;100.00
75157;BME280;63736;50.076;8.198;2023-08-24T08:00:29;99536.09;;;21.47;100.00
75157;BME280;63736;50.076;8.198;2023-08-24T08:02:55;99546.56;;;21.50;100.00
75157;BME280;63736;50.076;8.198;2023-08-24T08:05:20;99556.09;;;21.68;100.00
75157;BME280;63736;50.076;8.198;2023-08-24T08:07:48;99557.69;;;21.90;100.00
75157;BME280;63736;50.076;8.198;2023-08-24T08:10:13;99554.25;;;22.23;100.00
75157;BME280;63736;50.076;8.198;2023-08-24T08:12:38;99544.94;;;22.53;100.00
75157;BME280;63736;50.076;8.198;2023-08-24T08:15:04;99537.00;;;22.91;100.00
75157;BME280;63736;50.076;8.198;2023-08-24T08:17:29;99534.47;;;23.37;100.00
75157;BME280;63736;50.076;8.198;2023-08-24T08:19:56;99541.88;;;23.88;100.00
75157;BME280;63736;50.076;8.198;2023-08-24T08:22:21;99539.97;;;24.41;100.00
75157;BME280;63736;50.076;8.198;2023-08-24T08:24:46;99528.53;;;24.89;100.00
75157;BME280;63736;50.076;8.198;2023-08-24T08:27:12;99533.69;;;25.23;93.83
75157;BME280;63736;50.076;8.198;2023-08-24T08:29:37;99522.13;;;25.46;88.67
75157;BME280;63736;50.076;8.198;2023-08-24T08:32:03;99532.41;;;25.51;85.44
75157;BME280;63736;50.076;8.198;2023-08-24T08:34:29;99530.66;;;25.75;82.86
75157;BME280;63736;50.076;8.198;2023-08-24T08:36:54;99524.25;;;26.00;79.78
75157;BME280;63736;50.076;8.198;2023-08-24T08:39:20;99525.09;;;26.61;76.30
75157;BME280;63736;50.076;8.198;2023-08-24T08:41:45;99539.78;;;28.67;65.49
75157;BME280;63736;50.076;8.198;2023-08-24T08:44:13;99536.88;;;30.85;56.46
75157;BME280;63736;50.076;8.198;2023-08-24T08:46:42;99544.66;;;32.63;48.91
75157;BME280;63736;50.076;8.198;2023-08-24T08:49:08;99542.06;;;33.85;45.55
75157;BME280;63736;50.076;8.198;2023-08-24T08:51:37;99543.50;;;35.12;41.95
75157;BME280;63736;50.076;8.198;2023-08-24T08:54:04;99538.66;;;35.77;38.83
75157;BME280;63736;50.076;8.198;2023-08-24T08:56:31;99539.19;;;36.03;36.89
75157;BME280;63736;50.076;8.198;2023-08-24T08:58:58;99547.09;;;36.72;36.52
75157;BME280;63736;50.076;8.198;2023-08-24T09:01:25;99542.91;;;37.41;34.92
75157;BME280;63736;50.076;8.198;2023-08-24T09:03:52;99541.84;;;38.20;33.73
75157;BME280;63736;50.076;8.198;2023-08-24T09:06:18;99533.00;;;38.77;32.40
75157;BME280;63736;50.076;8.198;2023-08-24T09:08:43;99536.97;;;39.30;30.71
75157;BME280;63736;50.076;8.198;2023-08-24T09:11:09;99530.19;;;39.23;29.33
75157;BME280;63736;50.076;8.198;2023-08-24T09:13:35;99520.06;;;39.44;29.42
75157;BME280;63736;50.076;8.198;2023-08-24T09:16:05;99518.91;;;39.45;28.79
75157;BME280;63736;50.076;8.198;2023-08-24T09:18:38;99510.31;;;39.33;28.00
75157;BME280;63736;50.076;8.198;2023-08-24T09:21:11;99503.75;;;38.75;27.37
75157;BME280;63736;50.076;8.198;2023-08-24T09:23:38;99497.91;;;38.85;27.94
75157;BME280;63736;50.076;8.198;2023-08-24T09:26:08;99493.97;;;38.41;27.17
75157;BME280;63736;50.076;8.198;2023-08-24T09:28:33;99492.34;;;38.12;26.90
75157;BME280;63736;50.076;8.198;2023-08-24T09:31:00;99478.75;;;37.96;27.44
75157;BME280;63736;50.076;8.198;2023-08-24T09:33:26;99479.41;;;37.79;27.83
75157;BME280;63736;50.076;8.198;2023-08-24T09:35:53;99467.97;;;37.81;27.56
75157;BME280;63736;50.076;8.198;2023-08-24T09:38:22;99459.16;;;37.74;27.58
75157;BME280;63736;50.076;8.198;2023-08-24T09:40:51;99445.75;;;37.76;27.08
75157;BME280;63736;50.076;8.198;2023-08-24T09:43:17;99436.28;;;37.49;28.13
75157;BME280;63736;50.076;8.198;2023-08-24T09:48:15;99435.06;;;36.66;28.44
75157;BME280;63736;50.076;8.198;2023-08-24T09:50:42;99435.78;;;36.20;29.11
75157;BME280;63736;50.076;8.198;2023-08-24T09:53:21;99436.06;;;35.61;30.39
75157;BME280;63736;50.076;8.198;2023-08-24T09:55:55;99429.78;;;35.26;30.36
75157;BME280;63736;50.076;8.198;2023-08-24T09:58:24;99420.69;;;34.96;30.99
75157;BME280;63736;50.076;8.198;2023-08-24T10:00:51;99421.88;;;35.14;30.86
75157;BME280;63736;50.076;8.198;2023-08-24T10:03:19;99420.19;;;34.89;29.88
75157;BME280;63736;50.076;8.198;2023-08-24T10:05:51;99409.19;;;34.79;30.32
75157;BME280;63736;50.076;8.198;2023-08-24T10:08:21;99417.34;;;34.65;30.33
75157;BME280;63736;50.076;8.198;2023-08-24T10:10:48;99413.41;;;34.41;30.40
75157;BME280;63736;50.076;8.198;2023-08-24T10:13:23;99404.72;;;34.14;30.79
75157;BME280;63736;50.076;8.198;2023-08-24T10:15:50;99402.94;;;33.93;31.37
75157;BME280;63736;50.076;8.198;2023-08-24T10:18:16;99409.66;;;33.82;32.01
75157;BME280;63736;50.076;8.198;2023-08-24T10:20:42;99414.53;;;33.46;32.01
75157;BME280;63736;50.076;8.198;2023-08-24T10:23:11;99415.16;;;33.17;31.11
75157;BME280;63736;50.076;8.198;2023-08-24T10:25:38;99414.13;;;33.02;32.17
75157;BME280;63736;50.076;8.198;2023-08-24T10:28:05;99403.38;;;32.49;32.06
75157;BME280;63736;50.076;8.198;2023-08-24T10:30:33;99394.53;;;32.42;33.11
75157;BME280;63736;50.076;8.198;2023-08-24T10:32:59;99389.22;;;32.04;33.43
75157;BME280;63736;50.076;8.198;2023-08-24T10:35:25;99399.16;;;31.85;33.46
75157;BME280;63736;50.076;8.198;2023-08-24T10:37:52;99390.88;;;31.90;33.44
75157;BME280;63736;50.076;8.198;2023-08-24T10:40:31;99375.97;;;31.96;32.93
75157;BME280;63736;50.076;8.198;2023-08-24T10:42:56;99369.34;;;31.97;33.27
75157;BME280;63736;50.076;8.198;2023-08-24T10:45:22;99360.50;;;32.10;33.33
75157;BME280;63736;50.076;8.198;2023-08-24T10:47:52;99379.31;;;32.29;33.23
75157;BME280;63736;50.076;8.198;2023-08-24T10:50:19;99376.84;;;32.38;33.33
75157;BME280;63736;50.076;8.198;2023-08-24T10:52:44;99387.06;;;32.48;33.51
75157;BME280;63736;50.076;8.198;2023-08-24T10:55:27;99388.69;;;32.64;33.69
75157;BME280;63736;50.076;8.198;2023-08-24T10:57:59;99387.03;;;32.63;32.97
75157;BME280;63736;50.076;8.198;2023-08-24T11:00:27;99393.94;;;32.60;33.19
75157;BME280;63736;50.076;8.198;2023-08-24T11:02:53;99387.03;;;32.58;33.32
75157;BME280;63736;50.076;8.198;2023-08-24T11:05:27;99391.47;;;32.43;32.64
75157;BME280;63736;50.076;8.198;2023-08-24T11:08:04;99381.81;;;32.36;32.87
75157;BME280;63736;50.076;8.198;2023-08-24T11:13:16;99375.44;;;32.66;32.66
75157;BME280;63736;50.076;8.198;2023-08-24T11:15:46;99361.34;;;32.73;32.95
75157;BME280;63736;50.076;8.198;2023-08-24T11:18:13;99366.03;;;32.77;32.95
75157;BME280;63736;50.076;8.198;2023-08-24T11:20:42;99357.75;;;32.72;33.20
75157;BME280;63736;50.076;8.198;2023-08-24T11:23:09;99361.59;;;32.61;33.62
75157;BME280;63736;50.076;8.198;2023-08-24T11:25:38;99347.25;;;32.49;33.41
75157;BME280;63736;50.076;8.198;2023-08-24T11:28:04;99331.81;;;32.22;34.07
75157;BME280;63736;50.076;8.198;2023-08-24T11:30:31;99327.34;;;32.10;34.21
75157;BME280;63736;50.076;8.198;2023-08-24T11:32:57;99334.44;;;31.55;34.80
75157;BME280;63736;50.076;8.198;2023-08-24T11:35:23;99332.53;;;30.92;35.64
75157;BME280;63736;50.076;8.198;2023-08-24T11:37:55;99330.16;;;30.58;36.72
75157;BME280;63736;50.076;8.198;2023-08-24T11:40:21;99326.03;;;30.60;36.85
75157;BME280;63736;50.076;8.198;2023-08-24T11:42:53;99326.41;;;30.79;36.81
75157;BME280;63736;50.076;8.198;2023-08-24T11:45:19;99317.69;;;30.98;36.15
75157;BME280;63736;50.076;8.198;2023-08-24T11:47:44;99321.34;;;31.14;35.93
75157;BME280;63736;50.076;8.198;2023-08-24T11:50:09;99313.41;;;31.23;36.33
75157;BME280;63736;50.076;8.198;2023-08-24T11:52:41;99324.13;;;31.14;36.25
75157;BME280;63736;50.076;8.198;2023-08-24T11:55:07;99320.69;;;30.96;36.58
75157;BME280;63736;50.076;8.198;2023-08-24T11:57:34;99317.28;;;30.74;36.67
75157;BME280;63736;50.076;8.198;2023-08-24T12:00:01;99313.09;;;30.66;36.90
75157;BME280;63736;50.076;8.198;2023-08-24T12:02:27;99313.75;;;30.41;37.45
75157;BME280;63736;50.076;8.198;2023-08-24T12:04:52;99304.56;;;30.30;37.77
75157;BME280;63736;50.076;8.198;2023-08-24T12:07:20;99292.59;;;30.46;38.03
75157;BME280;63736;50.076;8.198;2023-08-24T12:09:46;99291.53;;;30.53;38.11
75157;BME280;63736;50.076;8.198;2023-08-24T12:12:12;99297.75;;;30.38;38.32
75157;BME280;63736;50.076;8.198;2023-08-24T12:14:45;99293.13;;;30.06;38.61
75157;BME280;63736;50.076;8.198;2023-08-24T12:17:11;99286.69;;;29.95;39.02
75157;BME280;63736;50.076;8.198;2023-08-24T12:19:41;99287.22;;;29.92;38.74
75157;BME280;63736;50.076;8.198;2023-08-24T12:22:07;99289.84;;;29.81;39.13
75157;BME280;63736;50.076;8.198;2023-08-24T12:24:34;99273.81;;;29.73;39.44
75157;BME280;63736;50.076;8.198;2023-08-24T12:26:59;99274.41;;;29.48;39.81
75157;BME280;63736;50.076;8.198;2023-08-24T12:29:26;99269.88;;;29.37;40.43
75157;BME280;63736;50.076;8.198;2023-08-24T12:31:56;99262.56;;;29.47;40.25
75157;BME280;63736;50.076;8.198;2023-08-24T12:34:22;99278.97;;;29.64;40.39
75157;BME280;63736;50.076;8.198;2023-08-24T12:36:48;99272.25;;;29.82;39.94
75157;BME280;63736;50.076;8.198;2023-08-24T12:39:13;99278.22;;;30.07;39.64
75157;BME280;63736;50.076;8.198;2023-08-24T12:41:40;99279.78;;;30.30;39.01
75157;BME280;63736;50.076;8.198;2023-08-24T12:44:05;99281.47;;;30.36;38.96
75157;BME280;63736;50.076;8.198;2023-08-24T12:46:34;99286.75;;;30.43;38.81
75157;BME280;63736;50.076;8.198;2023-08-24T12:49:00;99296.41;;;30.45;38.70
75157;BME280;63736;50.076;8.198;2023-08-24T12:51:25;99294.84;;;30.55;38.58
75157;BME280;63736;50.076;8.198;2023-08-24T12:53:50;99305.31;;;30.53;38.50
75157;BME280;63736;50.076;8.198;2023-08-24T12:56:16;99314.38;;;30.48;38.45
75157;BME280;63736;50.076;8.198;2023-08-24T12:58:41;99311.00;;;30.41;38.67
75157;BME280;63736;50.076;8.198;2023-08-24T13:01:06;99304.31;;;30.31;39.12
75157;BME280;63736;50.076;8.198;2023-08-24T13:03:32;99292.75;;;30.29;39.20
75157;BME280;63736;50.076;8.198;2023-08-24T13:05:57;99282.81;;;30.28;39.32